createdAt,value
2017-12-11T00:01:10.630Z,909.7
2017-12-11T00:02:22.854Z,909.7
2017-12-11T00:03:31.431Z,909.5
2017-12-11T00:04:44.901Z,909.4
2017-12-11T00:05:50.347Z,909.6
2017-12-11T00:07:06.014Z,909.7
2017-12-11T00:08:13.658Z,909.7
2017-12-11T00:09:24.495Z,909.6
2017-12-11T00:10:33.394Z,909.6
2017-12-11T00:11:40.090Z,909.5
2017-12-11T00:12:50.079Z,909.6
2017-12-11T00:13:57.480Z,909.5
2017-12-11T00:15:08.647Z,909.5
2017-12-11T00:16:13.084Z,910.3
2017-12-11T00:17:16.501Z,909.6
2017-12-11T00:18:24.052Z,909.9
2017-12-11T00:19:27.394Z,909.3
2017-12-11T00:20:32.006Z,909.1
2017-12-11T00:21:36.147Z,909.2
2017-12-11T00:22:39.643Z,909.2
2017-12-11T00:23:42.975Z,909
2017-12-11T00:24:48.413Z,908.9
2017-12-11T00:25:51.844Z,908.9
2017-12-11T00:26:55.329Z,909
2017-12-11T00:27:58.777Z,909
2017-12-11T00:29:06.302Z,909.8
2017-12-11T00:30:10.388Z,908.9
2017-12-11T00:31:13.862Z,909.8
2017-12-11T00:32:17.442Z,908.8
2017-12-11T00:33:20.820Z,908.6
2017-12-11T00:34:24.611Z,908.6
2017-12-11T00:35:29.082Z,909.5
2017-12-11T00:36:33.308Z,908.8
2017-12-11T00:37:36.912Z,908.8
2017-12-11T00:38:41.226Z,909
2017-12-11T00:39:48.431Z,909
2017-12-11T00:40:52.619Z,909.1
2017-12-11T00:41:56.155Z,909.2
2017-12-11T00:43:00.772Z,909.5
2017-12-11T00:44:04.285Z,909.2
2017-12-11T00:45:08.420Z,909.2
2017-12-11T00:46:12.739Z,909.1
2017-12-11T00:47:16.783Z,909.3
2017-12-11T00:48:20.880Z,909.3
2017-12-11T00:49:25.867Z,909.3
2017-12-11T00:50:34.734Z,909.3
2017-12-11T00:51:38.964Z,909.4
2017-12-11T00:52:43.704Z,909.5
2017-12-11T00:53:48.040Z,909.5
2017-12-11T00:54:52.982Z,909.5
2017-12-11T00:56:00.057Z,909.6
2017-12-11T00:57:05.297Z,909.5
2017-12-11T00:58:13.220Z,909.6
2017-12-11T00:59:20.796Z,909.7
2017-12-11T01:00:25.482Z,909.7
2017-12-11T01:01:33.317Z,909.7
2017-12-11T01:02:42.224Z,909.8
2017-12-11T01:03:47.888Z,906.4
2017-12-11T01:04:55.371Z,909.9
2017-12-11T01:06:03.530Z,909.8
2017-12-11T01:07:09.646Z,909.9
2017-12-11T01:08:19.997Z,909.9
2017-12-11T01:09:28.409Z,909.8
2017-12-11T01:10:39.816Z,909.9
2017-12-11T01:11:48.898Z,910.2
2017-12-11T01:13:08.213Z,910
2017-12-11T01:14:20.806Z,910
2017-12-11T01:15:29.438Z,910.1
2017-12-11T01:16:39.656Z,910.2
2017-12-11T01:17:51.298Z,906.6
2017-12-11T01:19:04.511Z,910.2
2017-12-11T01:20:16.660Z,906.7
2017-12-11T01:21:28.047Z,910.3
2017-12-11T01:22:42.167Z,910.3
2017-12-11T01:24:00.612Z,910.3
2017-12-11T01:25:21.794Z,910.3
2017-12-11T01:26:32.087Z,910.4
2017-12-11T01:27:44.172Z,911.2
2017-12-11T01:28:56.014Z,911.1
2017-12-11T01:30:08.896Z,911.2
2017-12-11T01:31:20.505Z,910.5
2017-12-11T01:32:29.342Z,910.4
2017-12-11T01:33:38.035Z,911.2
2017-12-11T01:34:47.196Z,911.2
2017-12-11T01:36:06.775Z,910.3
2017-12-11T01:37:38.014Z,911.1
2017-12-11T01:38:56.326Z,910.3
2017-12-11T01:40:10.480Z,910.4
2017-12-11T01:41:21.809Z,910.5
2017-12-11T01:42:35.203Z,910.5
2017-12-11T01:43:50.255Z,910.6
2017-12-11T01:45:01.522Z,910.6
2017-12-11T01:46:15.839Z,911.4
2017-12-11T01:47:30.229Z,910.6
2017-12-11T01:48:42.942Z,910.7
2017-12-11T01:50:24.366Z,910.6
2017-12-11T01:51:34.658Z,910.7
2017-12-11T01:52:51.618Z,910.7
2017-12-11T01:54:10.283Z,910.6
2017-12-11T01:55:21.473Z,910.6
2017-12-11T01:56:32.546Z,910.5
2017-12-11T01:57:46.595Z,910.5
2017-12-11T01:58:58.799Z,910.6
2017-12-11T02:00:14.735Z,910.5
2017-12-11T02:01:27.675Z,910.5
2017-12-11T02:02:46.539Z,910.4
2017-12-11T02:04:03.542Z,911.1
2017-12-11T02:05:19.780Z,911.2
2017-12-11T02:06:30.602Z,910.3
2017-12-11T02:07:39.764Z,910.2
2017-12-11T02:08:55.079Z,910.2
2017-12-11T02:10:08.984Z,909.2
2017-12-11T02:11:21.733Z,909.9
2017-12-11T02:12:32.608Z,909.9
2017-12-11T02:13:38.022Z,910.9
2017-12-11T02:15:05.354Z,910.1
2017-12-11T02:16:19.852Z,909.9
2017-12-11T02:17:30.208Z,909.7
2017-12-11T02:18:39.503Z,909.8
2017-12-11T02:19:52.032Z,910
2017-12-11T02:21:01.313Z,910.9
2017-12-11T02:22:14.006Z,910
2017-12-11T02:23:25.234Z,909.9
2017-12-11T02:24:44.193Z,910.1
2017-12-11T02:25:55.355Z,911
2017-12-11T02:27:16.392Z,911
2017-12-11T02:28:31.165Z,910.1
2017-12-11T02:29:41.150Z,910
2017-12-11T02:30:57.952Z,910
2017-12-11T02:32:09.129Z,910.8
2017-12-11T02:33:31.789Z,910
2017-12-11T02:34:46.186Z,910
2017-12-11T02:35:56.475Z,909.9
2017-12-11T02:37:09.695Z,910.5
2017-12-11T02:38:21.648Z,909.9
2017-12-11T02:39:43.197Z,909.8
2017-12-11T02:40:55.917Z,910.5
2017-12-11T02:42:08.410Z,909.8
2017-12-11T02:43:20.436Z,910
2017-12-11T02:44:28.415Z,909.9
2017-12-11T02:45:45.899Z,909.7
2017-12-11T02:46:59.869Z,909.5
2017-12-11T02:48:12.153Z,909.6
2017-12-11T02:49:25.421Z,910.5
2017-12-11T02:50:37.709Z,909.7
2017-12-11T02:51:58.431Z,909.7
2017-12-11T02:53:11.892Z,910.3
2017-12-11T02:54:16.632Z,909.6
2017-12-11T02:55:20.923Z,909.5
2017-12-11T02:56:27.790Z,909.6
2017-12-11T02:57:38.511Z,909.5
2017-12-11T02:58:43.799Z,910.3
2017-12-11T02:59:48.232Z,909.4
2017-12-11T03:00:53.361Z,909.4
2017-12-11T03:01:59.509Z,909.4
2017-12-11T03:03:14.534Z,909.3
2017-12-11T03:04:18.669Z,909.2
2017-12-11T03:05:22.925Z,909.3
2017-12-11T03:06:28.294Z,910
2017-12-11T03:07:32.392Z,909.3
2017-12-11T03:08:37.021Z,910
2017-12-11T03:09:42.396Z,909.2
2017-12-11T03:10:46.570Z,909.2
2017-12-11T03:11:50.540Z,909.3
2017-12-11T03:12:55.096Z,909.2
2017-12-11T03:14:01.957Z,909.2
2017-12-11T03:15:06.670Z,910.1
2017-12-11T03:16:10.838Z,909.2
2017-12-11T03:17:14.322Z,910.1
2017-12-11T03:18:17.860Z,909.1
2017-12-11T03:19:21.403Z,909
2017-12-11T03:20:24.916Z,909
2017-12-11T03:21:28.525Z,909.1
2017-12-11T03:22:32.893Z,909
2017-12-11T03:23:37.919Z,909
2017-12-11T03:24:50.294Z,909.1
2017-12-11T03:25:54.912Z,909.1
2017-12-11T03:27:00.106Z,909.1
2017-12-11T03:28:07.280Z,909.2
2017-12-11T03:29:14.133Z,909.2
2017-12-11T03:30:20.694Z,909.9
2017-12-11T03:31:25.143Z,909.2
2017-12-11T03:32:32.218Z,909.2
2017-12-11T03:33:41.925Z,909.1
2017-12-11T03:34:50.307Z,909.2
2017-12-11T03:36:14.728Z,909.1
2017-12-11T03:37:25.934Z,909.2
2017-12-11T03:38:35.542Z,909.2
2017-12-11T03:39:44.828Z,909.2
2017-12-11T03:40:57.019Z,909.2
2017-12-11T03:42:05.825Z,909.3
2017-12-11T03:43:22.460Z,909.1
2017-12-11T03:44:35.542Z,909.2
2017-12-11T03:45:50.074Z,909.2
2017-12-11T03:47:00.240Z,905.4
2017-12-11T03:48:26.352Z,909.2
2017-12-11T03:49:43.337Z,909.1
2017-12-11T03:50:52.360Z,909.2
2017-12-11T03:52:07.512Z,909
2017-12-11T03:53:32.142Z,909
2017-12-11T03:54:44.509Z,909
2017-12-11T03:56:03.482Z,909.9
2017-12-11T03:57:14.518Z,909
2017-12-11T03:58:26.224Z,909.1
2017-12-11T03:59:41.423Z,908.9
2017-12-11T04:01:03.360Z,908.8
2017-12-11T04:02:18.459Z,908.8
2017-12-11T04:03:30.648Z,908.9
2017-12-11T04:04:45.247Z,908.9
2017-12-11T04:05:58.715Z,908.9
2017-12-11T04:07:05.038Z,908.9
2017-12-11T04:08:10.419Z,908.9
2017-12-11T04:09:20.160Z,908.9
2017-12-11T04:10:25.259Z,908.8
2017-12-11T04:11:31.659Z,909.6
2017-12-11T04:12:45.814Z,908.8
2017-12-11T04:13:52.216Z,908.9
2017-12-11T04:14:57.578Z,908.7
2017-12-11T04:16:01.913Z,909.5
2017-12-11T04:17:13.870Z,908.7
2017-12-11T04:18:28.860Z,908.7
2017-12-11T04:19:36.920Z,908.7
2017-12-11T04:20:42.591Z,908.6
2017-12-11T04:21:53.608Z,908.6
2017-12-11T04:22:59.339Z,909.4
2017-12-11T04:24:12.594Z,908.5
2017-12-11T04:25:21.495Z,908.5
2017-12-11T04:26:32.283Z,908.5
2017-12-11T04:27:42.658Z,908.6
2017-12-11T04:28:54.033Z,909.3
2017-12-11T04:30:00.110Z,909.3
2017-12-11T04:31:08.803Z,908.5
2017-12-11T04:32:17.317Z,908.3
2017-12-11T04:33:29.981Z,908.5
2017-12-11T04:34:37.972Z,908.4
2017-12-11T04:35:51.735Z,908.4
2017-12-11T04:37:00.577Z,908.5
2017-12-11T04:38:09.747Z,908.5
2017-12-11T04:39:18.034Z,909.5
2017-12-11T04:40:24.582Z,908.5
2017-12-11T04:41:31.351Z,908.7
2017-12-11T04:42:42.828Z,908.5
2017-12-11T04:43:52.742Z,904.4
2017-12-11T04:44:59.929Z,908.5
2017-12-11T04:46:05.621Z,908.5
2017-12-11T04:47:18.852Z,908.6
2017-12-11T04:48:27.657Z,909.4
2017-12-11T04:49:38.985Z,908.6
2017-12-11T04:50:45.784Z,908.5
2017-12-11T04:51:54.322Z,909.4
2017-12-11T04:53:01.433Z,908.5
2017-12-11T04:54:08.172Z,909.4
2017-12-11T04:55:17.248Z,908.5
2017-12-11T04:56:27.238Z,908.4
2017-12-11T04:57:41.639Z,908.5
2017-12-11T04:59:03.585Z,908.4
2017-12-11T05:00:16.202Z,908.3
2017-12-11T05:01:27.893Z,909
2017-12-11T05:02:39.248Z,908.3
2017-12-11T05:03:51.238Z,908.3
2017-12-11T05:05:11.668Z,908.2
2017-12-11T05:06:23.115Z,909
2017-12-11T05:07:32.065Z,908.2
2017-12-11T05:08:41.389Z,909
2017-12-11T05:09:50.916Z,908.1
2017-12-11T05:11:07.581Z,904
2017-12-11T05:12:17.566Z,908.1
2017-12-11T05:13:30.336Z,908.3
2017-12-11T05:14:42.437Z,908.2
2017-12-11T05:15:56.929Z,908.3
2017-12-11T05:17:09.574Z,908.2
2017-12-11T05:18:24.790Z,907.9
2017-12-11T05:19:35.925Z,908.8
2017-12-11T05:20:46.448Z,908.8
2017-12-11T05:21:54.591Z,907.9
2017-12-11T05:23:14.441Z,908
2017-12-11T05:24:21.093Z,908
2017-12-11T05:25:24.395Z,908
2017-12-11T05:26:27.854Z,908.1
2017-12-11T05:27:31.202Z,908
2017-12-11T05:28:35.789Z,908.9
2017-12-11T05:29:39.130Z,909
2017-12-11T05:30:51.145Z,908.1
2017-12-11T05:31:54.472Z,908.1
2017-12-11T05:33:00.729Z,908.1
2017-12-11T05:34:13.093Z,908.1
2017-12-11T05:35:19.148Z,907.9
2017-12-11T05:36:25.293Z,908
2017-12-11T05:37:32.659Z,908.8
2017-12-11T05:38:39.266Z,908
2017-12-11T05:39:46.727Z,908
2017-12-11T05:40:54.055Z,908.7
2017-12-11T05:42:01.592Z,907.7
2017-12-11T05:43:10.360Z,907.6
2017-12-11T05:44:17.379Z,908.5
2017-12-11T05:45:29.565Z,908.4
2017-12-11T05:46:35.486Z,907.6
2017-12-11T05:47:42.105Z,907.5
2017-12-11T05:48:46.870Z,907.4
2017-12-11T05:49:52.937Z,903.4
2017-12-11T05:51:00.062Z,907.3
2017-12-11T05:52:03.278Z,903.8
2017-12-11T05:53:08.862Z,907.5
2017-12-11T05:54:13.214Z,908.2
2017-12-11T05:55:19.432Z,907.3
2017-12-11T05:56:30.654Z,907.3
2017-12-11T05:57:35.468Z,906.8
2017-12-11T05:58:40.290Z,906.9
2017-12-11T05:59:46.540Z,907.4
2017-12-11T06:00:51.646Z,907.4
2017-12-11T06:01:56.125Z,903.6
2017-12-11T06:03:02.951Z,907.5
2017-12-11T06:04:08.713Z,907.6
2017-12-11T06:05:14.185Z,907.6
2017-12-11T06:06:19.136Z,907.6
2017-12-11T06:07:31.052Z,907.5
2017-12-11T06:08:37.406Z,907.6
2017-12-11T06:09:42.662Z,907.6
2017-12-11T06:10:50.939Z,907.5
2017-12-11T06:11:54.827Z,907.5
2017-12-11T06:13:00.608Z,904
2017-12-11T06:14:06.571Z,907.4
2017-12-11T06:15:12.992Z,907.5
2017-12-11T06:16:19.218Z,907.3
2017-12-11T06:17:26.548Z,907.2
2017-12-11T06:18:33.949Z,907.3
2017-12-11T06:19:38.429Z,907.4
2017-12-11T06:20:43.712Z,907.3
2017-12-11T06:21:48.838Z,907.4
2017-12-11T06:22:54.264Z,907.3
2017-12-11T06:23:59.500Z,907.2
2017-12-11T06:25:04.405Z,907.4
2017-12-11T06:26:10.511Z,908
2017-12-11T06:27:14.800Z,907.1
2017-12-11T06:28:18.339Z,907.1
2017-12-11T06:29:29.309Z,907
2017-12-11T06:30:34.554Z,907.1
2017-12-11T06:31:40.156Z,907.1
2017-12-11T06:32:45.709Z,907.1
2017-12-11T06:33:53.545Z,907.1
2017-12-11T06:34:58.762Z,907
2017-12-11T06:36:09.824Z,907
2017-12-11T06:37:16.366Z,907.1
2017-12-11T06:38:23.441Z,907
2017-12-11T06:39:27.710Z,907
2017-12-11T06:40:36.473Z,907
2017-12-11T06:41:41.144Z,906.9
2017-12-11T06:42:48.017Z,906.8
2017-12-11T06:43:54.033Z,907.8
2017-12-11T06:45:01.887Z,907
2017-12-11T06:46:08.369Z,906.9
2017-12-11T06:47:14.850Z,907.6
2017-12-11T06:48:25.088Z,906.7
2017-12-11T06:49:30.891Z,906.7
2017-12-11T06:50:35.470Z,907.5
2017-12-11T06:51:46.150Z,906.9
2017-12-11T06:52:51.525Z,906.7
2017-12-11T06:53:58.007Z,907.6
2017-12-11T06:55:06.036Z,907.7
2017-12-11T06:56:26.554Z,906.7
2017-12-11T06:57:35.620Z,907.5
2017-12-11T06:58:52.224Z,906.5
2017-12-11T07:00:00.602Z,906.6
2017-12-11T07:01:14.185Z,907.4
2017-12-11T07:02:22.721Z,906.5
2017-12-11T07:03:43.270Z,906.5
2017-12-11T07:04:51.592Z,906.8
2017-12-11T07:06:08.631Z,907.3
2017-12-11T07:07:18.787Z,906.4
2017-12-11T07:08:26.574Z,907.4
2017-12-11T07:09:34.153Z,906.6
2017-12-11T07:10:40.269Z,906.6
2017-12-11T07:12:03.583Z,906.5
2017-12-11T07:13:17.224Z,907.3
2017-12-11T07:14:27.152Z,906.6
2017-12-11T07:15:48.525Z,907.3
2017-12-11T07:17:01.216Z,906.5
2017-12-11T07:18:11.527Z,907.3
2017-12-11T07:19:21.977Z,906.4
2017-12-11T07:20:29.513Z,906.4
2017-12-11T07:21:37.079Z,906.6
2017-12-11T07:22:49.658Z,906.7
2017-12-11T07:23:55.169Z,907.5
2017-12-11T07:25:05.549Z,906.7
2017-12-11T07:26:11.996Z,906.8
2017-12-11T07:27:34.435Z,907.5
2017-12-11T07:28:55.347Z,906.6
2017-12-11T07:30:00.030Z,906.7
2017-12-11T07:31:12.975Z,906.7
2017-12-11T07:32:19.081Z,906.7
2017-12-11T07:33:44.212Z,906.7
2017-12-11T07:34:56.239Z,906.7
2017-12-11T07:36:05.074Z,906.8
2017-12-11T07:37:29.910Z,906.9
2017-12-11T07:38:41.408Z,907.6
2017-12-11T07:39:56.769Z,906.8
2017-12-11T07:41:06.441Z,906.7
2017-12-11T07:42:24.740Z,906.7
2017-12-11T07:43:34.097Z,907.6
2017-12-11T07:44:42.935Z,906.7
2017-12-11T07:45:52.819Z,907
2017-12-11T07:46:59.330Z,906.7
2017-12-11T07:48:05.960Z,903.4
2017-12-11T07:49:14.424Z,906.7
2017-12-11T07:50:29.872Z,906.6
2017-12-11T07:51:50.322Z,906.6
2017-12-11T07:52:59.321Z,906.7
2017-12-11T07:54:07.293Z,906.6
2017-12-11T07:55:16.285Z,906.7
2017-12-11T07:56:27.122Z,906.7
2017-12-11T07:57:39.555Z,906.6
2017-12-11T07:59:01.496Z,906.5
2017-12-11T08:00:09.863Z,906.5
2017-12-11T08:01:24.610Z,906.6
2017-12-11T08:02:28.162Z,906.4
2017-12-11T08:03:45.230Z,906.4
2017-12-11T08:04:54.677Z,906.4
2017-12-11T08:06:00.275Z,906.5
2017-12-11T08:07:24.993Z,906.5
2017-12-11T08:08:31.290Z,906.6
2017-12-11T08:09:38.540Z,906.6
2017-12-11T08:10:45.097Z,906.6
2017-12-11T08:12:06.700Z,906.6
2017-12-11T08:13:17.172Z,907.4
2017-12-11T08:14:28.180Z,906.7
2017-12-11T08:15:40.985Z,902.9
2017-12-11T08:16:46.245Z,906.6
2017-12-11T08:17:51.776Z,907
2017-12-11T08:19:01.745Z,906.5
2017-12-11T08:20:29.662Z,906.6
2017-12-11T08:22:09.230Z,906.5
2017-12-11T08:23:23.957Z,907.2
2017-12-11T08:24:30.392Z,906.4
2017-12-11T08:25:36.256Z,906.4
2017-12-11T08:26:46.110Z,906.5
2017-12-11T08:28:04.524Z,906.5
2017-12-11T08:29:12.140Z,906.4
2017-12-11T08:30:23.000Z,906.2
2017-12-11T08:31:28.430Z,906.4
2017-12-11T08:32:55.387Z,906.5
2017-12-11T08:34:09.222Z,906.4
2017-12-11T08:35:26.149Z,907.2
2017-12-11T08:37:25.280Z,906.3
2017-12-11T08:38:57.960Z,906.3
2017-12-11T08:40:49.367Z,906.4
2017-12-11T08:42:43.794Z,906.3
2017-12-11T08:44:27.173Z,906.3
2017-12-11T08:45:52.507Z,906.3
2017-12-11T08:47:38.870Z,906.2
2017-12-11T08:48:58.386Z,906.3
2017-12-11T08:51:04.287Z,906.2
2017-12-11T08:52:16.021Z,906.3
2017-12-11T08:53:29.571Z,907
2017-12-11T08:54:42.034Z,907
2017-12-11T08:56:25.748Z,906.1
2017-12-11T08:57:58.586Z,906.1
2017-12-11T08:59:09.683Z,906.1
2017-12-11T09:00:21.314Z,906.1
2017-12-11T09:01:47.645Z,906.1
2017-12-11T09:03:14.099Z,906.9
2017-12-11T09:04:46.966Z,905.9
2017-12-11T09:06:15.661Z,905.9
2017-12-11T09:07:30.903Z,905.8
2017-12-11T09:08:40.750Z,905.9
2017-12-11T09:10:00.701Z,905.9
2017-12-11T09:12:01.506Z,906
2017-12-11T09:13:10.880Z,905.8
2017-12-11T09:14:30.461Z,905.8
2017-12-11T09:15:43.812Z,905.7
2017-12-11T09:17:17.573Z,905.6
2017-12-11T09:18:40.502Z,905.8
2017-12-11T09:20:01.589Z,905.7
2017-12-11T09:21:23.363Z,905.7
2017-12-11T09:22:47.904Z,905.6
2017-12-11T09:24:02.273Z,905.7
2017-12-11T09:25:55.569Z,905.9
2017-12-11T09:27:15.206Z,905.8
2017-12-11T09:28:41.454Z,905.6
2017-12-11T09:30:34.782Z,905.7
2017-12-11T09:31:50.386Z,905.8
2017-12-11T09:33:09.613Z,905.7
2017-12-11T09:34:40.144Z,906.5
2017-12-11T09:36:26.553Z,905.6
2017-12-11T09:37:45.790Z,905.5
2017-12-11T09:39:00.239Z,905.4
2017-12-11T09:41:06.707Z,905.3
2017-12-11T09:42:48.480Z,905.3
2017-12-11T09:44:15.762Z,905.3
2017-12-11T09:46:53.174Z,905.4
2017-12-11T09:48:16.808Z,905.4
2017-12-11T09:49:38.656Z,905.3
2017-12-11T09:50:50.398Z,905.3
2017-12-11T09:51:56.529Z,905.2
2017-12-11T09:53:07.359Z,905.2
2017-12-11T09:55:00.175Z,905.2
2017-12-11T09:56:11.952Z,905.1
2017-12-11T09:57:23.816Z,905.8
2017-12-11T10:00:13.515Z,905.2
2017-12-11T10:01:32.016Z,905.8
2017-12-11T10:03:12.998Z,905
2017-12-11T10:04:26.382Z,905
2017-12-11T10:05:50.536Z,905.1
2017-12-11T10:07:06.927Z,905.2
2017-12-11T10:08:41.990Z,905.2
2017-12-11T10:09:55.712Z,905.2
2017-12-11T10:11:09.001Z,905.1
2017-12-11T10:12:32.979Z,905.1
2017-12-11T10:13:57.466Z,905.1
2017-12-11T10:15:21.590Z,905.1
2017-12-11T10:16:48.487Z,905
2017-12-11T10:18:01.244Z,905.9
2017-12-11T10:19:31.477Z,905.2
2017-12-11T10:22:30.183Z,905.2
2017-12-11T10:23:48.975Z,905.1
2017-12-11T10:25:13.474Z,905.7
2017-12-11T10:26:19.032Z,905
2017-12-11T10:27:39.854Z,904.9
2017-12-11T10:29:09.620Z,905
2017-12-11T10:30:22.352Z,905
2017-12-11T10:31:36.547Z,905
2017-12-11T10:32:52.359Z,904.9
2017-12-11T10:34:35.544Z,905.1
2017-12-11T10:36:24.753Z,904.9
2017-12-11T10:38:13.383Z,905
2017-12-11T10:39:57.156Z,905
2017-12-11T10:41:21.700Z,905.1
2017-12-11T10:42:48.136Z,905.8
2017-12-11T10:43:54.518Z,905.8
2017-12-11T10:45:26.658Z,905
2017-12-11T10:46:54.460Z,905.7
2017-12-11T10:48:20.732Z,904.9
2017-12-11T10:50:08.412Z,904.8
2017-12-11T10:51:58.608Z,904.8
2017-12-11T10:53:46.191Z,904.8
2017-12-11T10:55:18.777Z,904.8
2017-12-11T10:56:37.359Z,905.4
2017-12-11T10:57:56.278Z,904.7
2017-12-11T10:59:24.450Z,904.7
2017-12-11T11:00:48.189Z,904.8
2017-12-11T11:02:23.424Z,904.7
2017-12-11T11:03:39.119Z,905.4
2017-12-11T11:05:08.024Z,904.7
2017-12-11T11:06:38.514Z,904.6
2017-12-11T11:08:03.826Z,904.6
2017-12-11T11:09:24.612Z,904.6
2017-12-11T11:11:03.291Z,905.1
2017-12-11T11:12:14.279Z,904.6
2017-12-11T11:13:48.893Z,904.5
2017-12-11T11:15:12.407Z,904.5
2017-12-11T11:16:31.629Z,904.5
2017-12-11T11:18:11.587Z,904.5
2017-12-11T11:19:32.418Z,904.5
2017-12-11T11:21:58.613Z,904.6
2017-12-11T11:23:21.911Z,904.7
2017-12-11T11:24:51.105Z,904.6
2017-12-11T11:26:11.276Z,905.4
2017-12-11T11:28:00.849Z,904.7
2017-12-11T11:29:17.605Z,904.7
2017-12-11T11:30:38.737Z,904.9
2017-12-11T11:31:55.676Z,904.8
2017-12-11T11:33:05.913Z,904.8
2017-12-11T11:34:19.038Z,904.7
2017-12-11T11:36:00.173Z,904.8
2017-12-11T11:37:24.408Z,904.8
2017-12-11T11:38:43.836Z,904.7
2017-12-11T11:39:54.805Z,904.7
2017-12-11T11:41:16.080Z,904.8
2017-12-11T11:42:26.636Z,904.8
2017-12-11T11:43:48.445Z,904.7
2017-12-11T11:45:02.317Z,904.7
2017-12-11T11:46:37.064Z,904.7
2017-12-11T11:48:14.929Z,904.7
2017-12-11T11:49:36.672Z,904.7
2017-12-11T11:50:47.073Z,904.7
2017-12-11T11:51:57.553Z,904.7
2017-12-11T11:53:11.476Z,904.9
2017-12-11T11:54:22.742Z,904.7
2017-12-11T11:55:38.223Z,904.8
2017-12-11T11:56:47.731Z,904.8
2017-12-11T11:58:00.488Z,904.7
2017-12-11T11:59:08.942Z,904.7
2017-12-11T12:00:18.436Z,904.8
2017-12-11T12:01:43.564Z,904.8
2017-12-11T12:02:48.767Z,904.7
2017-12-11T12:03:58.051Z,904.7
2017-12-11T12:05:06.637Z,904.7
2017-12-11T12:06:15.013Z,904.6
2017-12-11T12:07:33.287Z,904.5
2017-12-11T12:08:46.909Z,904.5
2017-12-11T12:09:55.152Z,904.6
2017-12-11T12:11:08.956Z,904.7
2017-12-11T12:12:16.014Z,904.8
2017-12-11T12:13:56.645Z,904.8
2017-12-11T12:15:09.467Z,904.7
2017-12-11T12:16:17.737Z,904.6
2017-12-11T12:17:27.987Z,904.7
2017-12-11T12:18:33.411Z,904.7
2017-12-11T12:19:41.314Z,904.6
2017-12-11T12:20:49.735Z,904.5
2017-12-11T12:21:54.843Z,904.6
2017-12-11T12:23:04.519Z,904.6
2017-12-11T12:24:10.372Z,904.6
2017-12-11T12:25:30.560Z,905.3
2017-12-11T12:26:36.535Z,904.5
2017-12-11T12:27:41.155Z,904.5
2017-12-11T12:28:45.513Z,904.6
2017-12-11T12:29:51.196Z,904.7
2017-12-11T12:30:55.707Z,904.7
2017-12-11T12:31:59.972Z,904.7
2017-12-11T12:33:03.907Z,904.6
2017-12-11T12:34:07.971Z,904.6
2017-12-11T12:35:13.935Z,904.7
2017-12-11T12:36:21.861Z,904.5
2017-12-11T12:37:27.573Z,904.5
2017-12-11T12:38:33.437Z,904.6
2017-12-11T12:39:44.157Z,905.3
2017-12-11T12:40:49.496Z,905.2
2017-12-11T12:41:56.747Z,904.5
2017-12-11T12:43:01.636Z,905.2
2017-12-11T12:44:07.798Z,905.3
2017-12-11T12:45:11.326Z,905.2
2017-12-11T12:46:14.721Z,904.4
2017-12-11T12:47:22.449Z,905.2
2017-12-11T12:48:26.611Z,904.5
2017-12-11T12:49:30.058Z,904.5
2017-12-11T12:50:33.477Z,905.3
2017-12-11T12:51:36.876Z,904.6
2017-12-11T12:52:40.485Z,904.5
2017-12-11T12:53:44.067Z,904.6
2017-12-11T12:54:47.504Z,904.5
2017-12-11T12:55:51.961Z,904.5
2017-12-11T12:56:55.508Z,904.5
2017-12-11T12:58:02.357Z,904.5
2017-12-11T12:59:06.688Z,904.5
2017-12-11T13:00:10.189Z,904.6
2017-12-11T13:01:13.766Z,904.6
2017-12-11T13:02:26.993Z,904.5
2017-12-11T13:03:34.687Z,904.5
2017-12-11T13:04:39.646Z,904.6
2017-12-11T13:05:48.245Z,904.5
2017-12-11T13:06:55.644Z,904.6
2017-12-11T13:08:04.546Z,904.5
2017-12-11T13:09:19.813Z,905.4
2017-12-11T13:10:29.111Z,904.4
2017-12-11T13:11:34.758Z,905.1
2017-12-11T13:12:44.145Z,905.1
2017-12-11T13:13:51.809Z,904.2
2017-12-11T13:14:56.220Z,904.3
2017-12-11T13:16:08.932Z,904.3
2017-12-11T13:17:19.665Z,904.2
2017-12-11T13:18:40.952Z,904.2
2017-12-11T13:19:52.201Z,904.3
2017-12-11T13:21:27.385Z,904.2
2017-12-11T13:22:36.487Z,904.1
2017-12-11T13:23:42.825Z,904.1
2017-12-11T13:24:49.474Z,904
2017-12-11T13:25:53.180Z,904.1
2017-12-11T13:26:57.142Z,904.9
2017-12-11T13:28:00.658Z,904.1
2017-12-11T13:29:04.751Z,904.1
2017-12-11T13:30:08.757Z,904
2017-12-11T13:31:13.820Z,904
2017-12-11T13:32:22.247Z,904
2017-12-11T13:33:28.807Z,904
2017-12-11T13:34:32.703Z,903.9
2017-12-11T13:35:39.244Z,903.9
2017-12-11T13:36:42.943Z,903.9
2017-12-11T13:37:47.287Z,903.9
2017-12-11T13:38:52.100Z,903.9
2017-12-11T13:39:57.038Z,904
2017-12-11T13:41:01.315Z,904
2017-12-11T13:42:05.068Z,904.2
2017-12-11T13:43:11.506Z,904.2
2017-12-11T13:44:15.315Z,904.2
2017-12-11T13:45:18.893Z,904.9
2017-12-11T13:46:22.695Z,902.4
2017-12-11T13:47:26.371Z,903.9
2017-12-11T13:48:30.778Z,904
2017-12-11T13:49:35.118Z,904
2017-12-11T13:50:38.738Z,903.9
2017-12-11T13:51:42.377Z,904
2017-12-11T13:52:45.891Z,904
2017-12-11T13:53:53.275Z,904
2017-12-11T13:54:56.906Z,904
2017-12-11T13:56:00.279Z,903.9
2017-12-11T13:57:03.944Z,904
2017-12-11T13:58:07.798Z,904
2017-12-11T13:59:11.393Z,904.9
2017-12-11T14:00:15.432Z,904.1
2017-12-11T14:01:19.021Z,904.1
2017-12-11T14:02:22.547Z,904.1
2017-12-11T14:03:26.826Z,904.1
2017-12-11T14:04:35.408Z,904
2017-12-11T14:05:49.381Z,904
2017-12-11T14:07:15.777Z,904.1
2017-12-11T14:08:40.620Z,904.8
2017-12-11T14:09:58.754Z,904
2017-12-11T14:11:28.547Z,904
2017-12-11T14:12:58.791Z,904
2017-12-11T14:14:26.472Z,904.1
2017-12-11T14:15:38.545Z,904
2017-12-11T14:17:13.150Z,904.7
2017-12-11T14:18:58.708Z,904
2017-12-11T14:20:14.502Z,904.5
2017-12-11T14:21:45.530Z,903.9
2017-12-11T14:23:03.103Z,904
2017-12-11T14:24:38.380Z,904
2017-12-11T14:25:55.317Z,904.7
2017-12-11T14:27:10.298Z,904.8
2017-12-11T14:28:31.307Z,904.1
2017-12-11T14:30:01.693Z,904.1
2017-12-11T14:31:22.347Z,904.1
2017-12-11T14:33:19.071Z,904.1
2017-12-11T14:34:33.001Z,904
2017-12-11T14:36:00.826Z,903.9
2017-12-11T14:37:12.304Z,903.7
2017-12-11T14:38:24.472Z,903.7
2017-12-11T14:39:35.396Z,903.7
2017-12-11T14:40:44.336Z,903.7
2017-12-11T14:42:12.089Z,903.9
2017-12-11T14:43:25.044Z,904
2017-12-11T14:44:55.128Z,903.9
2017-12-11T14:46:15.617Z,904.8
2017-12-11T14:47:32.523Z,904.1
2017-12-11T14:48:40.348Z,905
2017-12-11T14:50:03.965Z,904.1
2017-12-11T14:51:16.581Z,904.1
2017-12-11T14:52:20.536Z,904.1
2017-12-11T14:53:30.691Z,904.1
2017-12-11T14:55:33.427Z,904.1
2017-12-11T14:57:08.947Z,904.1
2017-12-11T14:58:21.270Z,904.2
2017-12-11T15:00:15.134Z,904.3
2017-12-11T15:01:30.211Z,904.3
2017-12-11T15:02:55.484Z,905
2017-12-11T15:04:04.514Z,904.2
2017-12-11T15:05:41.706Z,905
2017-12-11T15:06:55.872Z,904.2
2017-12-11T15:08:12.145Z,904.9
2017-12-11T15:09:27.316Z,904.1
2017-12-11T15:10:43.346Z,904.1
2017-12-11T15:12:05.418Z,904.2
2017-12-11T15:13:42.292Z,904.2
2017-12-11T15:14:59.180Z,905
2017-12-11T15:16:21.073Z,904.2
2017-12-11T15:17:31.820Z,904.2
2017-12-11T15:18:50.484Z,904.2
2017-12-11T15:20:06.760Z,904.4
2017-12-11T15:21:11.169Z,904.3
2017-12-11T15:22:26.238Z,904.3
2017-12-11T15:23:38.967Z,904.3
2017-12-11T15:24:49.135Z,904.3
2017-12-11T15:26:07.189Z,904.3
2017-12-11T15:27:19.538Z,904.3
2017-12-11T15:28:26.096Z,904.4
2017-12-11T15:29:39.492Z,904.4
2017-12-11T15:30:53.021Z,904.4
2017-12-11T15:32:02.934Z,904.7
2017-12-11T15:33:26.107Z,904.4
2017-12-11T15:34:38.739Z,904.4
2017-12-11T15:35:49.100Z,904.3
2017-12-11T15:36:53.170Z,904.4
2017-12-11T15:38:00.996Z,904.4
2017-12-11T15:39:05.496Z,904.4
2017-12-11T15:40:08.867Z,904.4
2017-12-11T15:41:13.499Z,904.5
2017-12-11T15:42:18.949Z,904.6
2017-12-11T15:43:23.145Z,904.6
2017-12-11T15:44:29.214Z,904.7
2017-12-11T15:45:32.751Z,905.4
2017-12-11T15:46:37.649Z,904.7
2017-12-11T15:47:40.974Z,905.4
2017-12-11T15:48:48.667Z,904.7
2017-12-11T15:49:52.150Z,904.7
2017-12-11T15:50:55.801Z,905.5
2017-12-11T15:52:00.095Z,905.6
2017-12-11T15:53:04.747Z,904.9
2017-12-11T15:54:08.168Z,905
2017-12-11T15:55:12.121Z,904.9